sensor_id;sensor_type;location;lat;lon;timestamp;temperature;humidity
18189;DHT22;9219;50.396;8.546;2022-09-13T00:00:53;19.80;99.90
18189;DHT22;9219;50.396;8.546;2022-09-13T00:03:31;19.80;99.90
18189;DHT22;9219;50.396;8.546;2022-09-13T00:06:11;19.80;99.90
18189;DHT22;9219;50.396;8.546;2022-09-13T00:08:48;19.80;99.90
18189;DHT22;9219;50.396;8.546;2022-09-13T00:11:23;19.80;99.90
18189;DHT22;9219;50.396;8.546;2022-09-13T00:13:51;19.80;99.90
18189;DHT22;9219;50.396;8.546;2022-09-13T00:16:22;19.80;99.90
18189;DHT22;9219;50.396;8.546;2022-09-13T00:18:51;19.90;99.90
18189;DHT22;9219;50.396;8.546;2022-09-13T00:29:05;19.80;99.90
18189;DHT22;9219;50.396;8.546;2022-09-13T00:31:33;19.90;99.90
18189;DHT22;9219;50.396;8.546;2022-09-13T00:34:01;19.90;99.90
18189;DHT22;9219;50.396;8.546;2022-09-13T00:36:29;19.80;99.90
18189;DHT22;9219;50.396;8.546;2022-09-13T00:38:59;19.90;99.90
18189;DHT22;9219;50.396;8.546;2022-09-13T00:41:26;20.00;99.90
18189;DHT22;9219;50.396;8.546;2022-09-13T00:43:55;20.10;99.90
18189;DHT22;9219;50.396;8.546;2022-09-13T00:46:31;20.20;99.90
18189;DHT22;9219;50.396;8.546;2022-09-13T00:54:06;20.10;99.90
18189;DHT22;9219;50.396;8.546;2022-09-13T00:56:37;20.20;99.90
18189;DHT22;9219;50.396;8.546;2022-09-13T00:59:10;20.20;99.90
18189;DHT22;9219;50.396;8.546;2022-09-13T01:01:43;20.20;99.90
18189;DHT22;9219;50.396;8.546;2022-09-13T01:04:12;20.20;99.90
18189;DHT22;9219;50.396;8.546;2022-09-13T01:06:40;20.20;99.90
18189;DHT22;9219;50.396;8.546;2022-09-13T01:09:10;20.20;99.90
18189;DHT22;9219;50.396;8.546;2022-09-13T01:14:34;20.30;99.90
18189;DHT22;9219;50.396;8.546;2022-09-13T01:17:03;20.40;99.90
18189;DHT22;9219;50.396;8.546;2022-09-13T01:19:30;20.40;99.90
18189;DHT22;9219;50.396;8.546;2022-09-13T01:22:21;20.40;99.90
18189;DHT22;9219;50.396;8.546;2022-09-13T01:28:11;20.30;99.90
18189;DHT22;9219;50.396;8.546;2022-09-13T01:39:38;20.40;99.90
18189;DHT22;9219;50.396;8.546;2022-09-13T01:42:18;20.30;99.90
18189;DHT22;9219;50.396;8.546;2022-09-13T01:45:02;20.40;99.90
18189;DHT22;9219;50.396;8.546;2022-09-13T01:47:38;20.30;99.90
18189;DHT22;9219;50.396;8.546;2022-09-13T01:50:14;20.30;99.90
18189;DHT22;9219;50.396;8.546;2022-09-13T01:52:51;20.40;99.90
18189;DHT22;9219;50.396;8.546;2022-09-13T02:00:28;20.40;99.90
18189;DHT22;9219;50.396;8.546;2022-09-13T02:03:02;20.50;99.90
18189;DHT22;9219;50.396;8.546;2022-09-13T02:05:37;20.40;99.90
18189;DHT22;9219;50.396;8.546;2022-09-13T02:08:09;20.50;99.90
18189;DHT22;9219;50.396;8.546;2022-09-13T02:10:41;20.40;99.90
18189;DHT22;9219;50.396;8.546;2022-09-13T02:13:14;20.20;99.90
18189;DHT22;9219;50.396;8.546;2022-09-13T02:15:47;20.00;99.90
18189;DHT22;9219;50.396;8.546;2022-09-13T02:25:42;20.10;99.90
18189;DHT22;9219;50.396;8.546;2022-09-13T02:28:16;20.20;99.90
18189;DHT22;9219;50.396;8.546;2022-09-13T02:31:01;20.20;99.90
18189;DHT22;9219;50.396;8.546;2022-09-13T02:33:33;20.20;99.90
18189;DHT22;9219;50.396;8.546;2022-09-13T02:36:05;20.30;99.90
18189;DHT22;9219;50.396;8.546;2022-09-13T02:38:40;20.40;99.90
18189;DHT22;9219;50.396;8.546;2022-09-13T02:41:16;20.40;99.90
18189;DHT22;9219;50.396;8.546;2022-09-13T02:48:57;20.60;99.90
18189;DHT22;9219;50.396;8.546;2022-09-13T02:51:32;20.70;99.90
18189;DHT22;9219;50.396;8.546;2022-09-13T02:54:10;20.70;99.90
18189;DHT22;9219;50.396;8.546;2022-09-13T02:56:48;20.80;99.90
18189;DHT22;9219;50.396;8.546;2022-09-13T02:59:20;20.90;99.90
18189;DHT22;9219;50.396;8.546;2022-09-13T03:01:51;21.00;99.90
18189;DHT22;9219;50.396;8.546;2022-09-13T03:04:34;20.90;99.90
18189;DHT22;9219;50.396;8.546;2022-09-13T03:07:05;21.00;99.90
18189;DHT22;9219;50.396;8.546;2022-09-13T03:14:45;21.10;99.90
18189;DHT22;9219;50.396;8.546;2022-09-13T03:17:33;20.90;99.90
18189;DHT22;9219;50.396;8.546;2022-09-13T03:20:11;20.80;99.90
18189;DHT22;9219;50.396;8.546;2022-09-13T03:23:09;20.90;99.90
18189;DHT22;9219;50.396;8.546;2022-09-13T03:26:05;21.00;99.90
18189;DHT22;9219;50.396;8.546;2022-09-13T03:28:52;21.00;99.90
18189;DHT22;9219;50.396;8.546;2022-09-13T03:39:20;21.00;99.90
18189;DHT22;9219;50.396;8.546;2022-09-13T03:41:54;21.00;99.90
18189;DHT22;9219;50.396;8.546;2022-09-13T03:44:26;21.00;99.90
18189;DHT22;9219;50.396;8.546;2022-09-13T03:46:58;21.10;99.90
18189;DHT22;9219;50.396;8.546;2022-09-13T03:49:28;21.10;99.90
18189;DHT22;9219;50.396;8.546;2022-09-13T03:51:57;21.10;99.90
18189;DHT22;9219;50.396;8.546;2022-09-13T03:54:29;21.10;99.90
18189;DHT22;9219;50.396;8.546;2022-09-13T04:02:15;21.00;99.90
18189;DHT22;9219;50.396;8.546;2022-09-13T04:04:44;21.00;99.90
18189;DHT22;9219;50.396;8.546;2022-09-13T04:07:13;20.90;99.90
18189;DHT22;9219;50.396;8.546;2022-09-13T04:09:41;21.00;99.90
18189;DHT22;9219;50.396;8.546;2022-09-13T04:12:09;21.00;99.90
18189;DHT22;9219;50.396;8.546;2022-09-13T04:14:39;21.10;99.90
18189;DHT22;9219;50.396;8.546;2022-09-13T04:17:09;21.20;99.90
18189;DHT22;9219;50.396;8.546;2022-09-13T04:22:32;21.40;99.90
18189;DHT22;9219;50.396;8.546;2022-09-13T04:25:00;21.50;99.90
18189;DHT22;9219;50.396;8.546;2022-09-13T04:27:28;21.50;99.90
18189;DHT22;9219;50.396;8.546;2022-09-13T04:29:56;21.50;99.90
18189;DHT22;9219;50.396;8.546;2022-09-13T04:32:24;21.50;99.90
18189;DHT22;9219;50.396;8.546;2022-09-13T04:34:52;21.40;99.90
18189;DHT22;9219;50.396;8.546;2022-09-13T04:37:20;21.50;99.90
18189;DHT22;9219;50.396;8.546;2022-09-13T04:39:50;21.40;99.90
18189;DHT22;9219;50.396;8.546;2022-09-13T04:45:15;21.30;99.90
18189;DHT22;9219;50.396;8.546;2022-09-13T04:47:42;21.30;99.90
18189;DHT22;9219;50.396;8.546;2022-09-13T04:50:10;21.20;99.90
18189;DHT22;9219;50.396;8.546;2022-09-13T04:52:38;21.20;99.90
18189;DHT22;9219;50.396;8.546;2022-09-13T04:55:06;21.20;99.90
18189;DHT22;9219;50.396;8.546;2022-09-13T04:57:35;21.10;99.90
18189;DHT22;9219;50.396;8.546;2022-09-13T05:00:04;21.10;99.90
18189;DHT22;9219;50.396;8.546;2022-09-13T05:10:29;21.30;99.90
18189;DHT22;9219;50.396;8.546;2022-09-13T05:12:57;21.20;99.90
18189;DHT22;9219;50.396;8.546;2022-09-13T05:15:27;21.10;99.90
18189;DHT22;9219;50.396;8.546;2022-09-13T05:17:55;21.30;99.90
18189;DHT22;9219;50.396;8.546;2022-09-13T05:20:23;21.30;99.90
18189;DHT22;9219;50.396;8.546;2022-09-13T05:22:51;21.20;99.90
18189;DHT22;9219;50.396;8.546;2022-09-13T05:25:19;21.10;99.90
18189;DHT22;9219;50.396;8.546;2022-09-13T05:33:42;21.10;99.90
18189;DHT22;9219;50.396;8.546;2022-09-13T05:36:10;21.10;99.90
18189;DHT22;9219;50.396;8.546;2022-09-13T05:38:39;21.00;99.90
18189;DHT22;9219;50.396;8.546;2022-09-13T05:41:07;21.20;99.90
18189;DHT22;9219;50.396;8.546;2022-09-13T05:43:35;21.20;99.90
18189;DHT22;9219;50.396;8.546;2022-09-13T05:46:11;21.10;99.90
18189;DHT22;9219;50.396;8.546;2022-09-13T05:48:41;21.10;99.90
18189;DHT22;9219;50.396;8.546;2022-09-13T05:51:11;21.10;99.90
18189;DHT22;9219;50.396;8.546;2022-09-13T05:58:45;21.10;99.90
18189;DHT22;9219;50.396;8.546;2022-09-13T06:01:16;21.00;99.90
18189;DHT22;9219;50.396;8.546;2022-09-13T06:03:46;21.20;99.90
18189;DHT22;9219;50.396;8.546;2022-09-13T06:06:15;21.10;99.90
18189;DHT22;9219;50.396;8.546;2022-09-13T06:08:43;21.10;99.90
18189;DHT22;9219;50.396;8.546;2022-09-13T06:11:12;21.40;99.90
18189;DHT22;9219;50.396;8.546;2022-09-13T06:13:42;21.50;99.90
18189;DHT22;9219;50.396;8.546;2022-09-13T06:20:47;21.60;99.90
18189;DHT22;9219;50.396;8.546;2022-09-13T06:23:15;21.70;99.90
18189;DHT22;9219;50.396;8.546;2022-09-13T06:25:43;21.50;99.90
18189;DHT22;9219;50.396;8.546;2022-09-13T06:28:10;21.40;99.90
18189;DHT22;9219;50.396;8.546;2022-09-13T06:30:39;21.30;99.90
18189;DHT22;9219;50.396;8.546;2022-09-13T06:33:06;21.10;99.90
18189;DHT22;9219;50.396;8.546;2022-09-13T06:35:36;21.10;99.90
18189;DHT22;9219;50.396;8.546;2022-09-13T06:43:04;21.10;99.90
18189;DHT22;9219;50.396;8.546;2022-09-13T06:45:32;21.20;99.90
18189;DHT22;9219;50.396;8.546;2022-09-13T06:48:00;21.10;99.90
18189;DHT22;9219;50.396;8.546;2022-09-13T06:50:30;21.10;99.90
18189;DHT22;9219;50.396;8.546;2022-09-13T06:52:58;21.20;99.90
18189;DHT22;9219;50.396;8.546;2022-09-13T06:55:26;21.00;99.90
18189;DHT22;9219;50.396;8.546;2022-09-13T06:57:54;20.80;99.90
18189;DHT22;9219;50.396;8.546;2022-09-13T07:00:24;20.80;99.90
18189;DHT22;9219;50.396;8.546;2022-09-13T07:07:57;20.70;99.90
18189;DHT22;9219;50.396;8.546;2022-09-13T07:10:25;20.90;99.90
18189;DHT22;9219;50.396;8.546;2022-09-13T07:12:53;20.80;99.90
18189;DHT22;9219;50.396;8.546;2022-09-13T07:15:21;20.70;99.90
18189;DHT22;9219;50.396;8.546;2022-09-13T07:17:49;20.80;99.90
18189;DHT22;9219;50.396;8.546;2022-09-13T07:20:17;21.10;99.90
18189;DHT22;9219;50.396;8.546;2022-09-13T07:22:45;21.30;99.90
18189;DHT22;9219;50.396;8.546;2022-09-13T07:25:15;21.50;99.90
18189;DHT22;9219;50.396;8.546;2022-09-13T07:32:46;21.90;99.90
18189;DHT22;9219;50.396;8.546;2022-09-13T07:35:14;21.80;99.90
18189;DHT22;9219;50.396;8.546;2022-09-13T07:37:44;21.80;99.90
18189;DHT22;9219;50.396;8.546;2022-09-13T07:40:12;21.70;99.90
18189;DHT22;9219;50.396;8.546;2022-09-13T07:42:40;21.80;99.90
18189;DHT22;9219;50.396;8.546;2022-09-13T07:45:09;21.70;99.90
18189;DHT22;9219;50.396;8.546;2022-09-13T07:47:38;21.70;99.90
18189;DHT22;9219;50.396;8.546;2022-09-13T07:52:57;21.80;99.90
18189;DHT22;9219;50.396;8.546;2022-09-13T07:55:25;21.80;99.90
18189;DHT22;9219;50.396;8.546;2022-09-13T07:57:53;21.90;99.90
18189;DHT22;9219;50.396;8.546;2022-09-13T08:00:21;21.80;99.90
18189;DHT22;9219;50.396;8.546;2022-09-13T08:02:50;21.80;99.90
18189;DHT22;9219;50.396;8.546;2022-09-13T08:05:19;21.80;99.90
18189;DHT22;9219;50.396;8.546;2022-09-13T08:07:47;22.10;99.90
18189;DHT22;9219;50.396;8.546;2022-09-13T08:10:31;22.30;99.90
18189;DHT22;9219;50.396;8.546;2022-09-13T08:18:25;22.40;99.90
18189;DHT22;9219;50.396;8.546;2022-09-13T08:20:55;22.60;99.90
18189;DHT22;9219;50.396;8.546;2022-09-13T08:23:23;22.70;99.90
18189;DHT22;9219;50.396;8.546;2022-09-13T08:25:51;22.80;99.90
18189;DHT22;9219;50.396;8.546;2022-09-13T08:28:20;22.90;99.90
18189;DHT22;9219;50.396;8.546;2022-09-13T08:30:53;22.80;99.90
18189;DHT22;9219;50.396;8.546;2022-09-13T08:33:21;22.80;99.90
18189;DHT22;9219;50.396;8.546;2022-09-13T08:38:28;22.80;99.90
18189;DHT22;9219;50.396;8.546;2022-09-13T08:40:57;23.00;99.90
18189;DHT22;9219;50.396;8.546;2022-09-13T08:43:42;23.10;99.90
18189;DHT22;9219;50.396;8.546;2022-09-13T08:46:20;23.10;99.90
18189;DHT22;9219;50.396;8.546;2022-09-13T08:48:51;23.20;99.90
18189;DHT22;9219;50.396;8.546;2022-09-13T08:51:27;23.30;99.90
18189;DHT22;9219;50.396;8.546;2022-09-13T08:53:59;23.40;99.90
18189;DHT22;9219;50.396;8.546;2022-09-13T09:01:46;23.60;99.90
18189;DHT22;9219;50.396;8.546;2022-09-13T09:04:33;23.70;99.90
18189;DHT22;9219;50.396;8.546;2022-09-13T09:07:08;23.80;99.90
18189;DHT22;9219;50.396;8.546;2022-09-13T09:09:40;23.90;99.90
18189;DHT22;9219;50.396;8.546;2022-09-13T09:12:16;24.00;99.90
18189;DHT22;9219;50.396;8.546;2022-09-13T09:14:47;24.20;99.90
18189;DHT22;9219;50.396;8.546;2022-09-13T09:17:21;24.40;99.90
18189;DHT22;9219;50.396;8.546;2022-09-13T09:24:57;24.50;99.90
18189;DHT22;9219;50.396;8.546;2022-09-13T09:27:25;24.60;99.90
18189;DHT22;9219;50.396;8.546;2022-09-13T09:29:54;24.80;99.90
18189;DHT22;9219;50.396;8.546;2022-09-13T09:32:41;24.70;99.90
18189;DHT22;9219;50.396;8.546;2022-09-13T09:35:20;24.60;99.90
18189;DHT22;9219;50.396;8.546;2022-09-13T09:38:16;24.70;99.90
18189;DHT22;9219;50.396;8.546;2022-09-13T09:40:47;24.80;99.90
18189;DHT22;9219;50.396;8.546;2022-09-13T09:48:27;24.70;99.90
18189;DHT22;9219;50.396;8.546;2022-09-13T09:51:04;25.00;99.90
18189;DHT22;9219;50.396;8.546;2022-09-13T09:53:36;25.00;99.90
18189;DHT22;9219;50.396;8.546;2022-09-13T09:56:19;25.00;99.90
18189;DHT22;9219;50.396;8.546;2022-09-13T09:59:10;24.80;99.90
18189;DHT22;9219;50.396;8.546;2022-09-13T10:01:55;24.90;99.90
18189;DHT22;9219;50.396;8.546;2022-09-13T10:04:28;24.90;99.90
18189;DHT22;9219;50.396;8.546;2022-09-13T10:10:54;24.50;99.90
18189;DHT22;9219;50.396;8.546;2022-09-13T10:13:26;25.00;99.90
18189;DHT22;9219;50.396;8.546;2022-09-13T10:15:59;24.90;99.90
18189;DHT22;9219;50.396;8.546;2022-09-13T10:18:29;24.80;99.90
18189;DHT22;9219;50.396;8.546;2022-09-13T10:21:22;25.10;99.90
18189;DHT22;9219;50.396;8.546;2022-09-13T10:23:50;25.20;99.90
18189;DHT22;9219;50.396;8.546;2022-09-13T10:26:21;25.10;99.90
18189;DHT22;9219;50.396;8.546;2022-09-13T10:28:53;24.80;99.90
18189;DHT22;9219;50.396;8.546;2022-09-13T10:36:52;24.10;99.90
18189;DHT22;9219;50.396;8.546;2022-09-13T10:39:25;24.20;99.90
18189;DHT22;9219;50.396;8.546;2022-09-13T10:41:57;24.20;99.90
18189;DHT22;9219;50.396;8.546;2022-09-13T10:44:31;24.10;99.90
18189;DHT22;9219;50.396;8.546;2022-09-13T10:47:03;23.90;99.90
18189;DHT22;9219;50.396;8.546;2022-09-13T10:49:41;23.70;99.90
18189;DHT22;9219;50.396;8.546;2022-09-13T10:52:29;23.80;99.90
18189;DHT22;9219;50.396;8.546;2022-09-13T11:00:20;23.80;99.90
18189;DHT22;9219;50.396;8.546;2022-09-13T11:03:07;23.20;99.90
18189;DHT22;9219;50.396;8.546;2022-09-13T11:05:49;23.40;99.90
18189;DHT22;9219;50.396;8.546;2022-09-13T11:08:41;23.50;99.90
18189;DHT22;9219;50.396;8.546;2022-09-13T11:11:18;24.00;99.90
18189;DHT22;9219;50.396;8.546;2022-09-13T11:13:59;24.20;99.90
18189;DHT22;9219;50.396;8.546;2022-09-13T11:16:43;24.50;99.90
18189;DHT22;9219;50.396;8.546;2022-09-13T11:24:37;24.80;99.90
18189;DHT22;9219;50.396;8.546;2022-09-13T11:27:14;24.90;99.90
18189;DHT22;9219;50.396;8.546;2022-09-13T11:29:57;24.80;99.90
18189;DHT22;9219;50.396;8.546;2022-09-13T11:33:20;24.60;99.90
18189;DHT22;9219;50.396;8.546;2022-09-13T11:36:15;24.40;99.90
18189;DHT22;9219;50.396;8.546;2022-09-13T11:38:55;24.30;99.90
18189;DHT22;9219;50.396;8.546;2022-09-13T11:45:14;24.70;99.90
18189;DHT22;9219;50.396;8.546;2022-09-13T11:48:04;24.80;99.90
18189;DHT22;9219;50.396;8.546;2022-09-13T11:50:45;24.70;99.90
18189;DHT22;9219;50.396;8.546;2022-09-13T11:53:45;24.90;99.90
18189;DHT22;9219;50.396;8.546;2022-09-13T11:56:25;25.40;99.90
18189;DHT22;9219;50.396;8.546;2022-09-13T11:58:55;25.60;99.90
18189;DHT22;9219;50.396;8.546;2022-09-13T12:04:57;25.80;99.90
18189;DHT22;9219;50.396;8.546;2022-09-13T12:07:50;25.80;99.90
18189;DHT22;9219;50.396;8.546;2022-09-13T12:10:22;26.00;99.90
18189;DHT22;9219;50.396;8.546;2022-09-13T12:12:53;26.10;99.90
18189;DHT22;9219;50.396;8.546;2022-09-13T12:15:28;26.20;99.90
18189;DHT22;9219;50.396;8.546;2022-09-13T12:18:01;26.10;99.90
18189;DHT22;9219;50.396;8.546;2022-09-13T12:20:34;26.30;99.90
18189;DHT22;9219;50.396;8.546;2022-09-13T12:23:08;26.60;99.90
18189;DHT22;9219;50.396;8.546;2022-09-13T12:31:24;26.70;99.90
18189;DHT22;9219;50.396;8.546;2022-09-13T12:33:55;27.20;99.90
18189;DHT22;9219;50.396;8.546;2022-09-13T12:36:45;27.20;99.90
18189;DHT22;9219;50.396;8.546;2022-09-13T12:39:44;27.00;99.90
18189;DHT22;9219;50.396;8.546;2022-09-13T12:42:47;27.30;99.90
18189;DHT22;9219;50.396;8.546;2022-09-13T12:45:31;27.10;99.90
18189;DHT22;9219;50.396;8.546;2022-09-13T12:48:30;26.10;99.90
18189;DHT22;9219;50.396;8.546;2022-09-13T12:56:33;26.00;99.90
18189;DHT22;9219;50.396;8.546;2022-09-13T12:59:22;26.10;99.90
18189;DHT22;9219;50.396;8.546;2022-09-13T13:01:52;25.70;99.90
18189;DHT22;9219;50.396;8.546;2022-09-13T13:04:22;25.90;99.90
18189;DHT22;9219;50.396;8.546;2022-09-13T13:06:53;26.10;99.90
18189;DHT22;9219;50.396;8.546;2022-09-13T13:09:29;26.40;99.90
18189;DHT22;9219;50.396;8.546;2022-09-13T13:12:27;26.40;99.90
18189;DHT22;9219;50.396;8.546;2022-09-13T13:14:56;26.40;99.90
18189;DHT22;9219;50.396;8.546;2022-09-13T13:25:27;26.70;99.90
18189;DHT22;9219;50.396;8.546;2022-09-13T13:27:56;26.70;99.90
18189;DHT22;9219;50.396;8.546;2022-09-13T13:30:49;26.90;99.90
18189;DHT22;9219;50.396;8.546;2022-09-13T13:33:25;26.60;99.90
18189;DHT22;9219;50.396;8.546;2022-09-13T13:35:53;26.30;99.90
18189;DHT22;9219;50.396;8.546;2022-09-13T13:41:56;25.70;99.90
18189;DHT22;9219;50.396;8.546;2022-09-13T13:44:55;26.20;99.90
18189;DHT22;9219;50.396;8.546;2022-09-13T13:50:31;26.00;99.90
18189;DHT22;9219;50.396;8.546;2022-09-13T13:53:20;26.30;99.90
18189;DHT22;9219;50.396;8.546;2022-09-13T13:56:07;26.20;99.90
18189;DHT22;9219;50.396;8.546;2022-09-13T13:58:53;26.10;99.90
18189;DHT22;9219;50.396;8.546;2022-09-13T14:06:51;26.40;99.90
18189;DHT22;9219;50.396;8.546;2022-09-13T14:09:29;26.00;99.90
18189;DHT22;9219;50.396;8.546;2022-09-13T14:12:14;26.00;99.90
18189;DHT22;9219;50.396;8.546;2022-09-13T14:14:56;26.20;99.90
18189;DHT22;9219;50.396;8.546;2022-09-13T14:18:12;26.40;99.90
18189;DHT22;9219;50.396;8.546;2022-09-13T14:21:02;26.40;99.90
18189;DHT22;9219;50.396;8.546;2022-09-13T14:26:27;25.60;99.90
18189;DHT22;9219;50.396;8.546;2022-09-13T14:28:56;25.60;99.90
18189;DHT22;9219;50.396;8.546;2022-09-13T14:31:24;25.80;99.90
18189;DHT22;9219;50.396;8.546;2022-09-13T14:33:52;25.90;99.90
18189;DHT22;9219;50.396;8.546;2022-09-13T14:36:22;26.00;99.90
18189;DHT22;9219;50.396;8.546;2022-09-13T14:38:51;26.00;99.90
18189;DHT22;9219;50.396;8.546;2022-09-13T14:41:30;25.80;99.90
18189;DHT22;9219;50.396;8.546;2022-09-13T14:52:14;26.30;99.90
18189;DHT22;9219;50.396;8.546;2022-09-13T14:54:46;26.20;99.90
18189;DHT22;9219;50.396;8.546;2022-09-13T14:57:22;26.10;99.90
18189;DHT22;9219;50.396;8.546;2022-09-13T14:59:55;25.80;99.90
18189;DHT22;9219;50.396;8.546;2022-09-13T15:02:28;25.90;99.90
18189;DHT22;9219;50.396;8.546;2022-09-13T15:04:59;26.00;99.90
18189;DHT22;9219;50.396;8.546;2022-09-13T15:07:30;26.00;99.90
18189;DHT22;9219;50.396;8.546;2022-09-13T15:15:40;25.80;99.90
18189;DHT22;9219;50.396;8.546;2022-09-13T15:18:23;25.40;99.90
18189;DHT22;9219;50.396;8.546;2022-09-13T15:20:52;25.30;99.90
18189;DHT22;9219;50.396;8.546;2022-09-13T15:23:24;25.30;99.90
18189;DHT22;9219;50.396;8.546;2022-09-13T15:25:55;25.40;99.90
18189;DHT22;9219;50.396;8.546;2022-09-13T15:28:26;25.30;99.90
18189;DHT22;9219;50.396;8.546;2022-09-13T15:30:59;25.00;99.90
18189;DHT22;9219;50.396;8.546;2022-09-13T15:37:08;25.20;99.90
18189;DHT22;9219;50.396;8.546;2022-09-13T15:39:45;25.00;99.90
18189;DHT22;9219;50.396;8.546;2022-09-13T15:42:16;25.40;99.90
18189;DHT22;9219;50.396;8.546;2022-09-13T15:44:46;25.40;99.90
18189;DHT22;9219;50.396;8.546;2022-09-13T15:47:16;25.60;99.90
18189;DHT22;9219;50.396;8.546;2022-09-13T15:49:47;25.70;99.90
18189;DHT22;9219;50.396;8.546;2022-09-13T15:52:18;25.90;99.90
18189;DHT22;9219;50.396;8.546;2022-09-13T15:59:20;25.50;99.90
18189;DHT22;9219;50.396;8.546;2022-09-13T16:01:49;25.50;99.90
18189;DHT22;9219;50.396;8.546;2022-09-13T16:04:17;25.10;99.90
18189;DHT22;9219;50.396;8.546;2022-09-13T16:06:47;24.90;99.90
18189;DHT22;9219;50.396;8.546;2022-09-13T16:09:17;24.80;99.90
18189;DHT22;9219;50.396;8.546;2022-09-13T16:11:46;24.50;99.90
18189;DHT22;9219;50.396;8.546;2022-09-13T16:14:15;24.40;99.90
18189;DHT22;9219;50.396;8.546;2022-09-13T16:22:38;24.10;99.90
18189;DHT22;9219;50.396;8.546;2022-09-13T16:25:08;23.60;99.90
18189;DHT22;9219;50.396;8.546;2022-09-13T16:27:38;23.60;99.90
18189;DHT22;9219;50.396;8.546;2022-09-13T16:30:11;23.60;99.90
18189;DHT22;9219;50.396;8.546;2022-09-13T16:32:40;23.40;99.90
18189;DHT22;9219;50.396;8.546;2022-09-13T16:35:09;23.20;99.90
18189;DHT22;9219;50.396;8.546;2022-09-13T16:37:38;23.10;99.90
18189;DHT22;9219;50.396;8.546;2022-09-13T16:43:09;23.20;99.90
18189;DHT22;9219;50.396;8.546;2022-09-13T16:45:38;23.10;99.90
18189;DHT22;9219;50.396;8.546;2022-09-13T16:48:07;23.10;99.90
18189;DHT22;9219;50.396;8.546;2022-09-13T16:50:38;22.90;99.90
18189;DHT22;9219;50.396;8.546;2022-09-13T16:53:07;22.80;99.90
18189;DHT22;9219;50.396;8.546;2022-09-13T16:55:36;22.50;99.90
18189;DHT22;9219;50.396;8.546;2022-09-13T16:58:05;22.70;99.90
18189;DHT22;9219;50.396;8.546;2022-09-13T17:03:24;22.80;99.90
18189;DHT22;9219;50.396;8.546;2022-09-13T17:05:57;22.80;99.90
18189;DHT22;9219;50.396;8.546;2022-09-13T17:08:25;22.80;99.90
18189;DHT22;9219;50.396;8.546;2022-09-13T17:10:54;22.60;99.90
18189;DHT22;9219;50.396;8.546;2022-09-13T17:13:22;22.50;99.90
18189;DHT22;9219;50.396;8.546;2022-09-13T17:15:51;22.70;99.90
18189;DHT22;9219;50.396;8.546;2022-09-13T17:18:24;22.70;99.90
18189;DHT22;9219;50.396;8.546;2022-09-13T17:23:34;22.60;99.90
18189;DHT22;9219;50.396;8.546;2022-09-13T17:26:02;22.50;99.90
18189;DHT22;9219;50.396;8.546;2022-09-13T17:28:30;22.50;99.90
18189;DHT22;9219;50.396;8.546;2022-09-13T17:30:58;22.30;99.90
18189;DHT22;9219;50.396;8.546;2022-09-13T17:33:42;22.20;99.90
18189;DHT22;9219;50.396;8.546;2022-09-13T17:36:12;22.20;99.90
18189;DHT22;9219;50.396;8.546;2022-09-13T17:38:43;21.90;99.90
18189;DHT22;9219;50.396;8.546;2022-09-13T17:45:31;21.70;99.90
18189;DHT22;9219;50.396;8.546;2022-09-13T17:48:00;21.30;99.90
18189;DHT22;9219;50.396;8.546;2022-09-13T17:50:28;21.10;99.90
18189;DHT22;9219;50.396;8.546;2022-09-13T17:52:55;21.00;99.90
18189;DHT22;9219;50.396;8.546;2022-09-13T17:55:24;21.00;99.90
18189;DHT22;9219;50.396;8.546;2022-09-13T17:57:52;20.80;99.90
18189;DHT22;9219;50.396;8.546;2022-09-13T18:00:21;20.60;99.90
18189;DHT22;9219;50.396;8.546;2022-09-13T18:10:15;20.90;99.90
18189;DHT22;9219;50.396;8.546;2022-09-13T18:13:05;21.00;99.90
18189;DHT22;9219;50.396;8.546;2022-09-13T18:15:37;20.90;99.90
18189;DHT22;9219;50.396;8.546;2022-09-13T18:18:07;20.90;99.90
18189;DHT22;9219;50.396;8.546;2022-09-13T18:20:37;20.90;99.90
18189;DHT22;9219;50.396;8.546;2022-09-13T18:23:07;21.00;99.90
18189;DHT22;9219;50.396;8.546;2022-09-13T18:25:41;20.80;99.90
18189;DHT22;9219;50.396;8.546;2022-09-13T18:28:11;20.80;99.90
18189;DHT22;9219;50.396;8.546;2022-09-13T18:35:59;21.00;99.90
18189;DHT22;9219;50.396;8.546;2022-09-13T18:38:31;20.70;99.90
18189;DHT22;9219;50.396;8.546;2022-09-13T18:41:02;20.70;99.90
18189;DHT22;9219;50.396;8.546;2022-09-13T18:43:47;20.70;99.90
18189;DHT22;9219;50.396;8.546;2022-09-13T18:46:25;20.70;99.90
18189;DHT22;9219;50.396;8.546;2022-09-13T18:49:10;20.60;99.90
18189;DHT22;9219;50.396;8.546;2022-09-13T18:51:43;20.50;99.90
18189;DHT22;9219;50.396;8.546;2022-09-13T18:58:31;20.60;99.90
18189;DHT22;9219;50.396;8.546;2022-09-13T19:01:03;20.60;99.90
18189;DHT22;9219;50.396;8.546;2022-09-13T19:03:35;20.50;99.90
18189;DHT22;9219;50.396;8.546;2022-09-13T19:06:10;20.50;99.90
18189;DHT22;9219;50.396;8.546;2022-09-13T19:08:42;20.30;99.90
18189;DHT22;9219;50.396;8.546;2022-09-13T19:11:15;20.30;99.90
18189;DHT22;9219;50.396;8.546;2022-09-13T19:14:07;20.40;99.90
18189;DHT22;9219;50.396;8.546;2022-09-13T19:21:44;20.50;99.90
18189;DHT22;9219;50.396;8.546;2022-09-13T19:24:13;20.60;99.90
18189;DHT22;9219;50.396;8.546;2022-09-13T19:26:46;20.60;99.90
18189;DHT22;9219;50.396;8.546;2022-09-13T19:29:20;20.70;99.90
18189;DHT22;9219;50.396;8.546;2022-09-13T19:31:54;21.00;99.90
18189;DHT22;9219;50.396;8.546;2022-09-13T19:34:26;20.80;99.90
18189;DHT22;9219;50.396;8.546;2022-09-13T19:37:01;20.90;99.90
18189;DHT22;9219;50.396;8.546;2022-09-13T19:42:20;21.00;99.90
18189;DHT22;9219;50.396;8.546;2022-09-13T19:44:54;20.80;99.90
18189;DHT22;9219;50.396;8.546;2022-09-13T19:47:26;20.50;99.90
18189;DHT22;9219;50.396;8.546;2022-09-13T19:50:17;20.50;99.90
18189;DHT22;9219;50.396;8.546;2022-09-13T19:52:49;20.50;99.90
18189;DHT22;9219;50.396;8.546;2022-09-13T19:55:19;20.50;99.90
18189;DHT22;9219;50.396;8.546;2022-09-13T19:57:55;20.30;99.90
18189;DHT22;9219;50.396;8.546;2022-09-13T20:05:26;20.20;99.90
18189;DHT22;9219;50.396;8.546;2022-09-13T20:07:56;20.10;99.90
18189;DHT22;9219;50.396;8.546;2022-09-13T20:10:26;20.10;99.90
18189;DHT22;9219;50.396;8.546;2022-09-13T20:12:57;20.00;99.90
18189;DHT22;9219;50.396;8.546;2022-09-13T20:15:28;20.10;99.90
18189;DHT22;9219;50.396;8.546;2022-09-13T20:17:59;20.00;99.90
18189;DHT22;9219;50.396;8.546;2022-09-13T20:20:36;19.90;99.90
18189;DHT22;9219;50.396;8.546;2022-09-13T20:28:18;19.80;99.90
18189;DHT22;9219;50.396;8.546;2022-09-13T20:30:52;19.60;99.90
18189;DHT22;9219;50.396;8.546;2022-09-13T20:33:22;19.50;99.90
18189;DHT22;9219;50.396;8.546;2022-09-13T20:35:51;19.60;99.90
18189;DHT22;9219;50.396;8.546;2022-09-13T20:38:19;19.80;99.90
18189;DHT22;9219;50.396;8.546;2022-09-13T20:40:47;19.90;99.90
18189;DHT22;9219;50.396;8.546;2022-09-13T20:43:18;19.80;99.90
18189;DHT22;9219;50.396;8.546;2022-09-13T20:51:07;19.70;99.90
18189;DHT22;9219;50.396;8.546;2022-09-13T20:53:39;19.60;99.90
18189;DHT22;9219;50.396;8.546;2022-09-13T20:56:10;19.60;99.90
18189;DHT22;9219;50.396;8.546;2022-09-13T20:58:44;19.60;99.90
18189;DHT22;9219;50.396;8.546;2022-09-13T21:01:16;19.70;99.90